BUH YBSU-YBCG
Flight info
| Callsign | BUH |
|---|---|
| Flight time | 1h 26m |
| Altitude | 5000 |
| Route | MFH DCT RUIS DCT PRP DCT Q1 |
| Aircraft | C172/L-SFG/C |
Departure
| Time | 2026-05-09 07:10 |
|---|---|
| Airport | Sunshine Coast Airport (YBSU) |
Arrival
| Time | 2026-05-09 08:37 |
|---|---|
| Airport | Gold Coast Airport (YBCG) |
| Time | Latitude | Longitude | Altitude | Speed | Heading |
|---|---|---|---|---|---|
| 2026-05-09 06:58 | -26.60275 | 153.08685 | 19 ft | 0 kts | 38° |
| 2026-05-09 07:00 | -26.60273 | 153.08696 | 19 ft | 5 kts | 128° |
| 2026-05-09 07:00 | -26.60316 | 153.08689 | 19 ft | 8 kts | 162° |
| 2026-05-09 07:00 | -26.60357 | 153.08744 | 18 ft | 11 kts | 130° |
| 2026-05-09 07:01 | -26.60405 | 153.08823 | 18 ft | 15 kts | 114° |
| 2026-05-09 07:01 | -26.60441 | 153.08924 | 20 ft | 12 kts | 124° |
| 2026-05-09 07:01 | -26.60502 | 153.08992 | 20 ft | 13 kts | 138° |
| 2026-05-09 07:01 | -26.60578 | 153.09014 | 20 ft | 11 kts | 203° |
| 2026-05-09 07:02 | -26.60646 | 153.08981 | 19 ft | 8 kts | 202° |
| 2026-05-09 07:02 | -26.60656 | 153.08976 | 19 ft | 0 kts | 204° |
| 2026-05-09 07:05 | -26.60668 | 153.08969 | 19 ft | 9 kts | 210° |
| 2026-05-09 07:06 | -26.60754 | 153.08944 | 18 ft | 13 kts | 194° |
| 2026-05-09 07:06 | -26.60854 | 153.08919 | 17 ft | 15 kts | 190° |
| 2026-05-09 07:06 | -26.60873 | 153.08863 | 16 ft | 7 kts | 1° |
| 2026-05-09 07:06 | -26.60855 | 153.08865 | 16 ft | 0 kts | 9° |
| 2026-05-09 07:07 | -26.60844 | 153.08858 | 17 ft | 6 kts | 331° |
| 2026-05-09 07:08 | -26.60786 | 153.08865 | 18 ft | 10 kts | 11° |
| 2026-05-09 07:08 | -26.60710 | 153.08905 | 19 ft | 14 kts | 36° |
| 2026-05-09 07:08 | -26.60617 | 153.08985 | 19 ft | 19 kts | 37° |
| 2026-05-09 07:08 | -26.60508 | 153.09098 | 19 ft | 24 kts | 49° |
| 2026-05-09 07:09 | -26.60375 | 153.09166 | 17 ft | 21 kts | 7° |
| 2026-05-09 07:09 | -26.60237 | 153.09093 | 17 ft | 25 kts | 322° |
| 2026-05-09 07:09 | -26.60029 | 153.08920 | 18 ft | 58 kts | 323° |
| 2026-05-09 07:09 | -26.59614 | 153.08561 | 44 ft | 87 kts | 322° |
| 2026-05-09 07:10 | -26.59112 | 153.08132 | 199 ft | 92 kts | 321° |
| 2026-05-09 07:10 | -26.58591 | 153.07671 | 350 ft | 95 kts | 321° |
| 2026-05-09 07:10 | -26.58089 | 153.07200 | 530 ft | 93 kts | 319° |
| 2026-05-09 07:10 | -26.57753 | 153.06592 | 644 ft | 94 kts | 278° |
| 2026-05-09 07:11 | -26.57769 | 153.05876 | 756 ft | 96 kts | 260° |
| 2026-05-09 07:11 | -26.57894 | 153.05155 | 929 ft | 94 kts | 252° |
| 2026-05-09 07:11 | -26.57800 | 153.04441 | 1063 ft | 106 kts | 311° |
| 2026-05-09 07:11 | -26.57123 | 153.04275 | 1119 ft | 101 kts | 36° |
| 2026-05-09 07:12 | -26.56684 | 153.04819 | 1011 ft | 89 kts | 60° |
| 2026-05-09 07:12 | -26.56554 | 153.05459 | 806 ft | 83 kts | 102° |
| 2026-05-09 07:12 | -26.56729 | 153.06017 | 664 ft | 75 kts | 128° |
| 2026-05-09 07:12 | -26.57100 | 153.06419 | 481 ft | 72 kts | 143° |
| 2026-05-09 07:13 | -26.57511 | 153.06751 | 304 ft | 73 kts | 146° |
| 2026-05-09 07:13 | -26.57892 | 153.07100 | 198 ft | 69 kts | 148° |
| 2026-05-09 07:13 | -26.58281 | 153.07414 | 70 ft | 65 kts | 145° |
| 2026-05-09 07:13 | -26.58575 | 153.07671 | 11 ft | 39 kts | 142° |
| 2026-05-09 07:14 | -26.58842 | 153.07895 | 18 ft | 64 kts | 145° |
| 2026-05-09 07:14 | -26.59270 | 153.08253 | 38 ft | 85 kts | 168° |
| 2026-05-09 07:14 | -26.59659 | 153.07815 | 222 ft | 86 kts | 233° |
| 2026-05-09 07:14 | -26.59987 | 153.07253 | 409 ft | 88 kts | 226° |
| 2026-05-09 07:15 | -26.60305 | 153.06740 | 711 ft | 76 kts | 231° |
| 2026-05-09 07:15 | -26.60508 | 153.06120 | 762 ft | 102 kts | 269° |
| 2026-05-09 07:15 | -26.60212 | 153.05366 | 926 ft | 109 kts | 307° |
| 2026-05-09 07:15 | -26.59657 | 153.04803 | 1086 ft | 111 kts | 323° |
| 2026-05-09 07:16 | -26.59034 | 153.04212 | 1126 ft | 122 kts | 317° |
| 2026-05-09 07:16 | -26.58414 | 153.03573 | 1151 ft | 118 kts | 313° |
| 2026-05-09 07:16 | -26.57843 | 153.02917 | 1060 ft | 125 kts | 348° |
| 2026-05-09 07:16 | -26.57415 | 153.03388 | 652 ft | 116 kts | 65° |
| 2026-05-09 07:17 | -26.57308 | 153.04255 | 668 ft | 114 kts | 90° |
| 2026-05-09 07:17 | -26.57286 | 153.05111 | 588 ft | 98 kts | 92° |
| 2026-05-09 07:17 | -26.57325 | 153.05791 | 517 ft | 79 kts | 104° |
| 2026-05-09 07:17 | -26.57418 | 153.06363 | 365 ft | 74 kts | 109° |
| 2026-05-09 07:18 | -26.57641 | 153.06835 | 291 ft | 68 kts | 132° |
| 2026-05-09 07:18 | -26.57999 | 153.07182 | 139 ft | 68 kts | 146° |
| 2026-05-09 07:18 | -26.58359 | 153.07485 | 38 ft | 62 kts | 147° |
| 2026-05-09 07:18 | -26.58644 | 153.07726 | 11 ft | 38 kts | 141° |
| 2026-05-09 07:19 | -26.58841 | 153.07872 | 14 ft | 40 kts | 143° |
| 2026-05-09 07:19 | -26.59092 | 153.08112 | 19 ft | 54 kts | 146° |
| 2026-05-09 07:19 | -26.59429 | 153.08397 | 13 ft | 61 kts | 148° |
| 2026-05-09 07:19 | -26.59785 | 153.08699 | 64 ft | 70 kts | 141° |
| 2026-05-09 07:20 | -26.60104 | 153.08979 | 16 ft | 43 kts | 148° |
| 2026-05-09 07:20 | -26.60285 | 153.09127 | 18 ft | 22 kts | 139° |
| 2026-05-09 07:20 | -26.60398 | 153.09165 | 17 ft | 16 kts | 181° |
| 2026-05-09 07:20 | -26.60457 | 153.09138 | 18 ft | 0 kts | 13° |
| 2026-05-09 07:24 | -26.60453 | 153.09139 | 18 ft | 0 kts | 20° |
| 2026-05-09 07:25 | -26.60428 | 153.09155 | 17 ft | 8 kts | 27° |
| 2026-05-09 07:25 | -26.60360 | 153.09176 | 17 ft | 13 kts | 3° |
| 2026-05-09 07:26 | -26.60212 | 153.09074 | 16 ft | 47 kts | 323° |
| 2026-05-09 07:26 | -26.59844 | 153.08749 | 28 ft | 83 kts | 320° |
| 2026-05-09 07:26 | -26.59335 | 153.08364 | 131 ft | 94 kts | 322° |
| 2026-05-09 07:26 | -26.58809 | 153.07931 | 324 ft | 93 kts | 334° |
| 2026-05-09 07:27 | -26.58224 | 153.07942 | 516 ft | 88 kts | 31° |
| 2026-05-09 07:27 | -26.57830 | 153.08455 | 587 ft | 92 kts | 77° |
| 2026-05-09 07:27 | -26.57883 | 153.09136 | 766 ft | 89 kts | 115° |
| 2026-05-09 07:27 | -26.58312 | 153.09568 | 927 ft | 88 kts | 163° |
| 2026-05-09 07:28 | -26.58962 | 153.09648 | 999 ft | 95 kts | 174° |
| 2026-05-09 07:28 | -26.59632 | 153.09697 | 1154 ft | 97 kts | 175° |
| 2026-05-09 07:28 | -26.60317 | 153.09748 | 1261 ft | 101 kts | 175° |
| 2026-05-09 07:28 | -26.61078 | 153.09781 | 1258 ft | 109 kts | 176° |
| 2026-05-09 07:29 | -26.61765 | 153.09789 | 1576 ft | 90 kts | 177° |
| 2026-05-09 07:29 | -26.62327 | 153.09772 | 1888 ft | 76 kts | 178° |
| 2026-05-09 07:29 | -26.62852 | 153.09748 | 2067 ft | 75 kts | 178° |
| 2026-05-09 07:29 | -26.63372 | 153.09719 | 2219 ft | 75 kts | 176° |
| 2026-05-09 07:30 | -26.63879 | 153.09791 | 2362 ft | 73 kts | 159° |
| 2026-05-09 07:30 | -26.64380 | 153.09928 | 2492 ft | 78 kts | 160° |
| 2026-05-09 07:30 | -26.64950 | 153.10092 | 2570 ft | 87 kts | 160° |
| 2026-05-09 07:30 | -26.65534 | 153.10269 | 2722 ft | 87 kts | 160° |
| 2026-05-09 07:31 | -26.66121 | 153.10451 | 2864 ft | 88 kts | 162° |
| 2026-05-09 07:31 | -26.66712 | 153.10646 | 3008 ft | 89 kts | 161° |
| 2026-05-09 07:31 | -26.67305 | 153.10839 | 3162 ft | 88 kts | 161° |
| 2026-05-09 07:31 | -26.67904 | 153.11029 | 3292 ft | 91 kts | 161° |
| 2026-05-09 07:32 | -26.68509 | 153.11227 | 3444 ft | 90 kts | 161° |
| 2026-05-09 07:32 | -26.69113 | 153.11424 | 3544 ft | 91 kts | 161° |
| 2026-05-09 07:32 | -26.69721 | 153.11628 | 3682 ft | 90 kts | 161° |
| 2026-05-09 07:32 | -26.70325 | 153.11827 | 3800 ft | 91 kts | 161° |
| 2026-05-09 07:33 | -26.70940 | 153.12032 | 3877 ft | 95 kts | 161° |
| 2026-05-09 07:33 | -26.72304 | 153.12497 | 3693 ft | 110 kts | 162° |
| 2026-05-09 07:33 | -26.73050 | 153.12748 | 3576 ft | 112 kts | 161° |
| 2026-05-09 07:34 | -26.73767 | 153.12985 | 3523 ft | 104 kts | 161° |
| 2026-05-09 07:34 | -26.74447 | 153.13196 | 3525 ft | 99 kts | 162° |
| 2026-05-09 07:34 | -26.75093 | 153.13400 | 3517 ft | 95 kts | 161° |
| 2026-05-09 07:34 | -26.75721 | 153.13591 | 3515 ft | 94 kts | 161° |
| 2026-05-09 07:35 | -26.76334 | 153.13827 | 3509 ft | 92 kts | 141° |
| 2026-05-09 07:35 | -26.76786 | 153.14317 | 3527 ft | 91 kts | 139° |
| 2026-05-09 07:35 | -26.77319 | 153.14707 | 3528 ft | 93 kts | 156° |
| 2026-05-09 07:35 | -26.77962 | 153.14846 | 3533 ft | 96 kts | 165° |
| 2026-05-09 07:36 | -26.78625 | 153.14983 | 3536 ft | 97 kts | 165° |
| 2026-05-09 07:36 | -26.79294 | 153.15101 | 3529 ft | 97 kts | 166° |
| 2026-05-09 07:36 | -26.79960 | 153.15226 | 3525 ft | 97 kts | 166° |
| 2026-05-09 07:36 | -26.80620 | 153.15370 | 3525 ft | 97 kts | 165° |
| 2026-05-09 07:37 | -26.81280 | 153.15489 | 3530 ft | 95 kts | 168° |
| 2026-05-09 07:37 | -26.81928 | 153.15612 | 3531 ft | 94 kts | 166° |
| 2026-05-09 07:37 | -26.82576 | 153.15745 | 3526 ft | 97 kts | 166° |
| 2026-05-09 07:37 | -26.83232 | 153.15900 | 3527 ft | 97 kts | 166° |
| 2026-05-09 07:38 | -26.83892 | 153.16065 | 3525 ft | 98 kts | 166° |
| 2026-05-09 07:38 | -26.84561 | 153.16243 | 3528 ft | 99 kts | 165° |
| 2026-05-09 07:38 | -26.85237 | 153.16412 | 3527 ft | 100 kts | 166° |
| 2026-05-09 07:38 | -26.85916 | 153.16580 | 3532 ft | 99 kts | 166° |
| 2026-05-09 07:39 | -26.86593 | 153.16745 | 3529 ft | 99 kts | 166° |
| 2026-05-09 07:39 | -26.87266 | 153.16908 | 3526 ft | 99 kts | 166° |
| 2026-05-09 07:39 | -26.87706 | 153.17018 | 3523 ft | 97 kts | 166° |
| 2026-05-09 07:39 | -26.88370 | 153.17179 | 3527 ft | 98 kts | 167° |
| 2026-05-09 07:40 | -26.89033 | 153.17351 | 3528 ft | 98 kts | 166° |
| 2026-05-09 07:40 | -26.89925 | 153.17567 | 3535 ft | 98 kts | 167° |
| 2026-05-09 07:40 | -26.90589 | 153.17725 | 3538 ft | 99 kts | 166° |
| 2026-05-09 07:40 | -26.91041 | 153.17831 | 3538 ft | 98 kts | 166° |
| 2026-05-09 07:41 | -26.91711 | 153.17987 | 3536 ft | 99 kts | 166° |
| 2026-05-09 07:41 | -26.92389 | 153.18149 | 3533 ft | 99 kts | 166° |
| 2026-05-09 07:41 | -26.93063 | 153.18304 | 3528 ft | 99 kts | 166° |
| 2026-05-09 07:41 | -26.93736 | 153.18461 | 3529 ft | 99 kts | 166° |
| 2026-05-09 07:42 | -26.94407 | 153.18623 | 3529 ft | 99 kts | 166° |
| 2026-05-09 07:42 | -26.95085 | 153.18780 | 3528 ft | 99 kts | 166° |
| 2026-05-09 07:42 | -26.95758 | 153.18941 | 3525 ft | 99 kts | 166° |
| 2026-05-09 07:42 | -26.96435 | 153.19105 | 3528 ft | 99 kts | 166° |
| 2026-05-09 07:43 | -26.97113 | 153.19266 | 3528 ft | 100 kts | 166° |
| 2026-05-09 07:43 | -26.97793 | 153.19433 | 3529 ft | 100 kts | 166° |
| 2026-05-09 07:43 | -26.98472 | 153.19595 | 3526 ft | 100 kts | 166° |
| 2026-05-09 07:43 | -26.99148 | 153.19758 | 3526 ft | 99 kts | 166° |
| 2026-05-09 07:44 | -26.99815 | 153.19917 | 3524 ft | 97 kts | 165° |
| 2026-05-09 07:44 | -27.00482 | 153.20074 | 3523 ft | 99 kts | 165° |
| 2026-05-09 07:44 | -27.01152 | 153.20240 | 3522 ft | 99 kts | 166° |
| 2026-05-09 07:44 | -27.01812 | 153.20402 | 3526 ft | 98 kts | 167° |
| 2026-05-09 07:45 | -27.02480 | 153.20559 | 3528 ft | 98 kts | 167° |
| 2026-05-09 07:45 | -27.03142 | 153.20723 | 3529 ft | 98 kts | 166° |
| 2026-05-09 07:45 | -27.03822 | 153.20871 | 3531 ft | 99 kts | 163° |
| 2026-05-09 07:45 | -27.04480 | 153.21089 | 3539 ft | 98 kts | 162° |
| 2026-05-09 07:46 | -27.05146 | 153.21303 | 3531 ft | 101 kts | 162° |
| 2026-05-09 07:46 | -27.05824 | 153.21523 | 3532 ft | 101 kts | 162° |
| 2026-05-09 07:46 | -27.06505 | 153.21746 | 3532 ft | 103 kts | 161° |
| 2026-05-09 07:46 | -27.07053 | 153.22244 | 3531 ft | 105 kts | 127° |
| 2026-05-09 07:47 | -27.07504 | 153.22898 | 3531 ft | 106 kts | 129° |
| 2026-05-09 07:47 | -27.07944 | 153.23554 | 3529 ft | 105 kts | 122° |
| 2026-05-09 07:47 | -27.08215 | 153.24313 | 3529 ft | 104 kts | 114° |
| 2026-05-09 07:47 | -27.08470 | 153.25071 | 3529 ft | 104 kts | 114° |
| 2026-05-09 07:48 | -27.08730 | 153.25826 | 3528 ft | 103 kts | 115° |
| 2026-05-09 07:48 | -27.08993 | 153.26580 | 3527 ft | 104 kts | 114° |
| 2026-05-09 07:48 | -27.09243 | 153.27341 | 3527 ft | 104 kts | 111° |
| 2026-05-09 07:48 | -27.09470 | 153.28128 | 3525 ft | 107 kts | 111° |
| 2026-05-09 07:49 | -27.09703 | 153.28932 | 3526 ft | 109 kts | 112° |
| 2026-05-09 07:49 | -27.09937 | 153.29746 | 3528 ft | 110 kts | 111° |
| 2026-05-09 07:49 | -27.10170 | 153.30562 | 3530 ft | 110 kts | 111° |
| 2026-05-09 07:49 | -27.10408 | 153.31378 | 3529 ft | 110 kts | 112° |
| 2026-05-09 07:50 | -27.10646 | 153.32184 | 3528 ft | 107 kts | 117° |
| 2026-05-09 07:50 | -27.10970 | 153.32915 | 3527 ft | 105 kts | 124° |
| 2026-05-09 07:50 | -27.11550 | 153.33395 | 3533 ft | 103 kts | 150° |
| 2026-05-09 07:50 | -27.12173 | 153.33795 | 3532 ft | 102 kts | 150° |
| 2026-05-09 07:51 | -27.12789 | 153.34181 | 3530 ft | 100 kts | 150° |
| 2026-05-09 07:51 | -27.13399 | 153.34563 | 3525 ft | 100 kts | 150° |
| 2026-05-09 07:51 | -27.13996 | 153.34946 | 3525 ft | 99 kts | 149° |
| 2026-05-09 07:51 | -27.14600 | 153.35318 | 3523 ft | 99 kts | 150° |
| 2026-05-09 07:52 | -27.15199 | 153.35695 | 3524 ft | 98 kts | 150° |
| 2026-05-09 07:52 | -27.15817 | 153.36009 | 3528 ft | 100 kts | 169° |
| 2026-05-09 07:52 | -27.16508 | 153.36105 | 3531 ft | 101 kts | 170° |
| 2026-05-09 07:52 | -27.17212 | 153.36205 | 3536 ft | 103 kts | 170° |
| 2026-05-09 07:53 | -27.17955 | 153.36325 | 3539 ft | 109 kts | 169° |
| 2026-05-09 07:53 | -27.18718 | 153.36450 | 3539 ft | 113 kts | 169° |
| 2026-05-09 07:53 | -27.19495 | 153.36578 | 3537 ft | 115 kts | 171° |
| 2026-05-09 07:53 | -27.20303 | 153.36709 | 3530 ft | 118 kts | 170° |
| 2026-05-09 07:54 | -27.21113 | 153.36846 | 3534 ft | 117 kts | 169° |
| 2026-05-09 07:54 | -27.21909 | 153.36970 | 3533 ft | 113 kts | 170° |
| 2026-05-09 07:54 | -27.22687 | 153.36992 | 3523 ft | 111 kts | 180° |
| 2026-05-09 07:54 | -27.23452 | 153.36977 | 3525 ft | 108 kts | 178° |
| 2026-05-09 07:55 | -27.24206 | 153.36981 | 3524 ft | 109 kts | 176° |
| 2026-05-09 07:55 | -27.24968 | 153.36996 | 3525 ft | 110 kts | 176° |
| 2026-05-09 07:55 | -27.25739 | 153.37017 | 3529 ft | 111 kts | 176° |
| 2026-05-09 07:55 | -27.26522 | 153.37039 | 3530 ft | 114 kts | 176° |
| 2026-05-09 07:56 | -27.27320 | 153.37062 | 3537 ft | 115 kts | 176° |
| 2026-05-09 07:56 | -27.28125 | 153.37089 | 3537 ft | 117 kts | 177° |
| 2026-05-09 07:56 | -27.28927 | 153.37114 | 3537 ft | 116 kts | 177° |
| 2026-05-09 07:56 | -27.29733 | 153.37140 | 3537 ft | 116 kts | 176° |
| 2026-05-09 07:57 | -27.30535 | 153.37165 | 3537 ft | 115 kts | 175° |
| 2026-05-09 07:57 | -27.31339 | 153.37191 | 3533 ft | 116 kts | 176° |
| 2026-05-09 07:57 | -27.32139 | 153.37217 | 3536 ft | 114 kts | 176° |
| 2026-05-09 07:57 | -27.32930 | 153.37243 | 3534 ft | 113 kts | 176° |
| 2026-05-09 07:58 | -27.33721 | 153.37268 | 3532 ft | 114 kts | 175° |
| 2026-05-09 07:58 | -27.34514 | 153.37293 | 3531 ft | 114 kts | 176° |
| 2026-05-09 07:58 | -27.35310 | 153.37319 | 3531 ft | 113 kts | 176° |
| 2026-05-09 07:58 | -27.36097 | 153.37343 | 3531 ft | 113 kts | 175° |
| 2026-05-09 07:59 | -27.36886 | 153.37369 | 3530 ft | 114 kts | 176° |
| 2026-05-09 07:59 | -27.37684 | 153.37395 | 3533 ft | 115 kts | 176° |
| 2026-05-09 07:59 | -27.38486 | 153.37420 | 3533 ft | 115 kts | 176° |
| 2026-05-09 07:59 | -27.39278 | 153.37446 | 3532 ft | 113 kts | 177° |
| 2026-05-09 08:00 | -27.40068 | 153.37472 | 3529 ft | 115 kts | 177° |
| 2026-05-09 08:00 | -27.40862 | 153.37497 | 3528 ft | 114 kts | 176° |
| 2026-05-09 08:00 | -27.41659 | 153.37523 | 3528 ft | 115 kts | 177° |
| 2026-05-09 08:00 | -27.42463 | 153.37549 | 3532 ft | 116 kts | 177° |
| 2026-05-09 08:01 | -27.43268 | 153.37574 | 3533 ft | 116 kts | 177° |
| 2026-05-09 08:01 | -27.44075 | 153.37600 | 3533 ft | 116 kts | 176° |
| 2026-05-09 08:01 | -27.44884 | 153.37626 | 3534 ft | 116 kts | 177° |
| 2026-05-09 08:01 | -27.45695 | 153.37652 | 3534 ft | 116 kts | 176° |
| 2026-05-09 08:02 | -27.46504 | 153.37677 | 3538 ft | 116 kts | 177° |
| 2026-05-09 08:02 | -27.47315 | 153.37704 | 3536 ft | 116 kts | 177° |
| 2026-05-09 08:02 | -27.48125 | 153.37729 | 3536 ft | 117 kts | 177° |
| 2026-05-09 08:02 | -27.48925 | 153.37755 | 3537 ft | 117 kts | 177° |
| 2026-05-09 08:03 | -27.49738 | 153.37781 | 3536 ft | 116 kts | 177° |
| 2026-05-09 08:03 | -27.50544 | 153.37807 | 3534 ft | 115 kts | 176° |
| 2026-05-09 08:03 | -27.51349 | 153.37833 | 3532 ft | 115 kts | 177° |
| 2026-05-09 08:03 | -27.52150 | 153.37859 | 3533 ft | 116 kts | 176° |
| 2026-05-09 08:04 | -27.52953 | 153.37885 | 3534 ft | 116 kts | 176° |
| 2026-05-09 08:04 | -27.53754 | 153.37911 | 3534 ft | 115 kts | 177° |
| 2026-05-09 08:04 | -27.54559 | 153.37936 | 3534 ft | 116 kts | 176° |
| 2026-05-09 08:04 | -27.55367 | 153.37962 | 3534 ft | 117 kts | 177° |
| 2026-05-09 08:05 | -27.56179 | 153.37988 | 3534 ft | 117 kts | 176° |
| 2026-05-09 08:05 | -27.56993 | 153.38015 | 3534 ft | 117 kts | 177° |
| 2026-05-09 08:05 | -27.57805 | 153.38040 | 3534 ft | 117 kts | 177° |
| 2026-05-09 08:05 | -27.58617 | 153.38067 | 3533 ft | 117 kts | 177° |
| 2026-05-09 08:06 | -27.59431 | 153.38093 | 3531 ft | 117 kts | 176° |
| 2026-05-09 08:06 | -27.60242 | 153.38119 | 3531 ft | 116 kts | 176° |
| 2026-05-09 08:06 | -27.61048 | 153.38145 | 3530 ft | 116 kts | 177° |
| 2026-05-09 08:06 | -27.61840 | 153.38171 | 3535 ft | 116 kts | 177° |
| 2026-05-09 08:07 | -27.62644 | 153.38197 | 3538 ft | 115 kts | 177° |
| 2026-05-09 08:07 | -27.63449 | 153.38223 | 3537 ft | 116 kts | 177° |
| 2026-05-09 08:07 | -27.64253 | 153.38249 | 3537 ft | 116 kts | 177° |
| 2026-05-09 08:07 | -27.65059 | 153.38274 | 3539 ft | 116 kts | 177° |
| 2026-05-09 08:08 | -27.65867 | 153.38300 | 3541 ft | 116 kts | 177° |
| 2026-05-09 08:08 | -27.66676 | 153.38329 | 3538 ft | 116 kts | 175° |
| 2026-05-09 08:08 | -27.67469 | 153.38450 | 3539 ft | 112 kts | 161° |
| 2026-05-09 08:08 | -27.68244 | 153.38567 | 3541 ft | 113 kts | 172° |
| 2026-05-09 08:09 | -27.69026 | 153.38688 | 3541 ft | 113 kts | 172° |
| 2026-05-09 08:09 | -27.69816 | 153.38810 | 3510 ft | 117 kts | 172° |
| 2026-05-09 08:09 | -27.70604 | 153.38930 | 3376 ft | 113 kts | 172° |
| 2026-05-09 08:09 | -27.71378 | 153.39049 | 3248 ft | 111 kts | 172° |
| 2026-05-09 08:10 | -27.72144 | 153.39167 | 3119 ft | 111 kts | 172° |
| 2026-05-09 08:10 | -27.72912 | 153.39285 | 2995 ft | 111 kts | 172° |
| 2026-05-09 08:10 | -27.73676 | 153.39404 | 2871 ft | 111 kts | 172° |
| 2026-05-09 08:10 | -27.74441 | 153.39521 | 2749 ft | 110 kts | 171° |
| 2026-05-09 08:11 | -27.75204 | 153.39638 | 2620 ft | 111 kts | 172° |
| 2026-05-09 08:11 | -27.75967 | 153.39756 | 2496 ft | 110 kts | 171° |
| 2026-05-09 08:11 | -27.76719 | 153.39871 | 2370 ft | 110 kts | 171° |
| 2026-05-09 08:11 | -27.77479 | 153.39989 | 2243 ft | 110 kts | 170° |
| 2026-05-09 08:12 | -27.78963 | 153.40218 | 1987 ft | 104 kts | 171° |
| 2026-05-09 08:12 | -27.79665 | 153.40326 | 1852 ft | 100 kts | 171° |
| 2026-05-09 08:12 | -27.80345 | 153.40431 | 1716 ft | 97 kts | 171° |
| 2026-05-09 08:13 | -27.81018 | 153.40536 | 1605 ft | 97 kts | 170° |
| 2026-05-09 08:13 | -27.81690 | 153.40643 | 1606 ft | 100 kts | 171° |
| 2026-05-09 08:13 | -27.82394 | 153.40751 | 1563 ft | 105 kts | 171° |
| 2026-05-09 08:13 | -27.83131 | 153.40864 | 1508 ft | 107 kts | 171° |
| 2026-05-09 08:14 | -27.83858 | 153.40976 | 1503 ft | 103 kts | 170° |
| 2026-05-09 08:14 | -27.84562 | 153.41085 | 1504 ft | 102 kts | 171° |
| 2026-05-09 08:14 | -27.85269 | 153.41194 | 1498 ft | 103 kts | 170° |
| 2026-05-09 08:14 | -27.85973 | 153.41303 | 1496 ft | 101 kts | 171° |
| 2026-05-09 08:15 | -27.86663 | 153.41410 | 1501 ft | 102 kts | 171° |
| 2026-05-09 08:15 | -27.87366 | 153.41519 | 1498 ft | 102 kts | 170° |
| 2026-05-09 08:15 | -27.88068 | 153.41627 | 1498 ft | 102 kts | 171° |
| 2026-05-09 08:15 | -27.88772 | 153.41737 | 1497 ft | 102 kts | 170° |
| 2026-05-09 08:16 | -27.89483 | 153.41846 | 1501 ft | 103 kts | 171° |
| 2026-05-09 08:16 | -27.90121 | 153.42151 | 1490 ft | 103 kts | 141° |
| 2026-05-09 08:16 | -27.90750 | 153.42505 | 1485 ft | 103 kts | 167° |
| 2026-05-09 08:16 | -27.91460 | 153.42644 | 1481 ft | 102 kts | 171° |
| 2026-05-09 08:17 | -27.92148 | 153.42523 | 1469 ft | 105 kts | 211° |
| 2026-05-09 08:17 | -27.92385 | 153.41757 | 1495 ft | 113 kts | 284° |
| 2026-05-09 08:17 | -27.91809 | 153.41186 | 1515 ft | 115 kts | 338° |
| 2026-05-09 08:17 | -27.91052 | 153.40838 | 1487 ft | 118 kts | 340° |
| 2026-05-09 08:18 | -27.90293 | 153.40496 | 1490 ft | 117 kts | 339° |
| 2026-05-09 08:18 | -27.89543 | 153.40156 | 1505 ft | 116 kts | 340° |
| 2026-05-09 08:18 | -27.88794 | 153.39822 | 1505 ft | 118 kts | 340° |
| 2026-05-09 08:18 | -27.88008 | 153.39602 | 1548 ft | 116 kts | 4° |
| 2026-05-09 08:19 | -27.87279 | 153.39904 | 1557 ft | 113 kts | 45° |
| 2026-05-09 08:19 | -27.86918 | 153.40625 | 1566 ft | 108 kts | 91° |
| 2026-05-09 08:19 | -27.87273 | 153.41310 | 1559 ft | 105 kts | 154° |
| 2026-05-09 08:19 | -27.88008 | 153.41503 | 1535 ft | 107 kts | 168° |
| 2026-05-09 08:20 | -27.88724 | 153.41635 | 1525 ft | 104 kts | 171° |
| 2026-05-09 08:20 | -27.89420 | 153.41489 | 1499 ft | 111 kts | 218° |
| 2026-05-09 08:20 | -27.89649 | 153.40673 | 1516 ft | 117 kts | 280° |
| 2026-05-09 08:20 | -27.89123 | 153.40012 | 1518 ft | 117 kts | 341° |
| 2026-05-09 08:21 | -27.88332 | 153.39800 | 1498 ft | 118 kts | 351° |
| 2026-05-09 08:21 | -27.87541 | 153.39615 | 1526 ft | 115 kts | 351° |
| 2026-05-09 08:21 | -27.86747 | 153.39449 | 1525 ft | 116 kts | 354° |
| 2026-05-09 08:21 | -27.85947 | 153.39360 | 1538 ft | 115 kts | 359° |
| 2026-05-09 08:22 | -27.85148 | 153.39354 | 1544 ft | 116 kts | 15° |
| 2026-05-09 08:22 | -27.84563 | 153.39902 | 1500 ft | 109 kts | 75° |
| 2026-05-09 08:22 | -27.84664 | 153.40693 | 1485 ft | 104 kts | 128° |
| 2026-05-09 08:22 | -27.85268 | 153.41094 | 1465 ft | 106 kts | 165° |
| 2026-05-09 08:23 | -27.85977 | 153.41270 | 1460 ft | 104 kts | 167° |
| 2026-05-09 08:23 | -27.86440 | 153.41380 | 1471 ft | 102 kts | 168° |
| 2026-05-09 08:23 | -27.87125 | 153.41555 | 1504 ft | 100 kts | 166° |
| 2026-05-09 08:23 | -27.87805 | 153.41726 | 1485 ft | 102 kts | 167° |
| 2026-05-09 08:24 | -27.88493 | 153.41897 | 1476 ft | 102 kts | 166° |
| 2026-05-09 08:24 | -27.89313 | 153.41602 | 1536 ft | 105 kts | 241° |
| 2026-05-09 08:24 | -27.89290 | 153.41040 | 1543 ft | 111 kts | 297° |
| 2026-05-09 08:24 | -27.88360 | 153.40566 | 1466 ft | 121 kts | 355° |
| 2026-05-09 08:25 | -27.87820 | 153.40502 | 1474 ft | 117 kts | 5° |
| 2026-05-09 08:25 | -27.87374 | 153.41074 | 1453 ft | 102 kts | 110° |
| 2026-05-09 08:25 | -27.87898 | 153.41572 | 1460 ft | 99 kts | 151° |
| 2026-05-09 08:25 | -27.88536 | 153.41924 | 1428 ft | 102 kts | 154° |
| 2026-05-09 08:26 | -27.89204 | 153.42280 | 1329 ft | 108 kts | 153° |
| 2026-05-09 08:26 | -27.89850 | 153.42549 | 1505 ft | 95 kts | 166° |
| 2026-05-09 08:26 | -27.90514 | 153.42659 | 1545 ft | 98 kts | 173° |
| 2026-05-09 08:26 | -27.91213 | 153.42712 | 1526 ft | 102 kts | 176° |
| 2026-05-09 08:27 | -27.91938 | 153.42716 | 1497 ft | 105 kts | 178° |
| 2026-05-09 08:27 | -27.92661 | 153.42679 | 1522 ft | 103 kts | 180° |
| 2026-05-09 08:27 | -27.93382 | 153.42638 | 1505 ft | 104 kts | 181° |
| 2026-05-09 08:27 | -27.94106 | 153.42631 | 1518 ft | 103 kts | 178° |
| 2026-05-09 08:28 | -27.94816 | 153.42643 | 1519 ft | 103 kts | 174° |
| 2026-05-09 08:28 | -27.95532 | 153.42660 | 1543 ft | 101 kts | 179° |
| 2026-05-09 08:28 | -27.96236 | 153.42665 | 1508 ft | 105 kts | 176° |
| 2026-05-09 08:28 | -27.96959 | 153.42708 | 1523 ft | 103 kts | 174° |
| 2026-05-09 08:29 | -27.97667 | 153.42762 | 1532 ft | 101 kts | 175° |
| 2026-05-09 08:29 | -27.98384 | 153.42840 | 1497 ft | 104 kts | 173° |
| 2026-05-09 08:29 | -27.99100 | 153.42920 | 1506 ft | 103 kts | 174° |
| 2026-05-09 08:29 | -27.99815 | 153.42988 | 1506 ft | 103 kts | 173° |
| 2026-05-09 08:30 | -28.00533 | 153.43052 | 1510 ft | 103 kts | 174° |
| 2026-05-09 08:30 | -28.01243 | 153.43120 | 1508 ft | 102 kts | 173° |
| 2026-05-09 08:30 | -28.01953 | 153.43182 | 1507 ft | 102 kts | 174° |
| 2026-05-09 08:30 | -28.02660 | 153.43247 | 1508 ft | 102 kts | 174° |
| 2026-05-09 08:31 | -28.03368 | 153.43307 | 1506 ft | 102 kts | 174° |
| 2026-05-09 08:31 | -28.04078 | 153.43376 | 1505 ft | 102 kts | 173° |
| 2026-05-09 08:31 | -28.04745 | 153.43611 | 1516 ft | 99 kts | 155° |
| 2026-05-09 08:31 | -28.05334 | 153.43964 | 1515 ft | 96 kts | 155° |
| 2026-05-09 08:32 | -28.05930 | 153.44299 | 1512 ft | 94 kts | 156° |
| 2026-05-09 08:32 | -28.06512 | 153.44644 | 1510 ft | 94 kts | 156° |
| 2026-05-09 08:32 | -28.07638 | 153.45359 | 1508 ft | 90 kts | 157° |
| 2026-05-09 08:33 | -28.08210 | 153.45664 | 1509 ft | 93 kts | 157° |
| 2026-05-09 08:33 | -28.08800 | 153.45995 | 1509 ft | 96 kts | 155° |
| 2026-05-09 08:33 | -28.09387 | 153.46344 | 1454 ft | 96 kts | 157° |
| 2026-05-09 08:33 | -28.09973 | 153.46694 | 1382 ft | 95 kts | 157° |
| 2026-05-09 08:34 | -28.10566 | 153.47030 | 1244 ft | 97 kts | 159° |
| 2026-05-09 08:34 | -28.11185 | 153.47378 | 1105 ft | 98 kts | 155° |
| 2026-05-09 08:34 | -28.11783 | 153.47737 | 994 ft | 96 kts | 156° |
| 2026-05-09 08:34 | -28.12351 | 153.48050 | 859 ft | 86 kts | 160° |
| 2026-05-09 08:35 | -28.12874 | 153.48358 | 679 ft | 84 kts | 155° |
| 2026-05-09 08:35 | -28.13379 | 153.48641 | 633 ft | 78 kts | 155° |
| 2026-05-09 08:35 | -28.13811 | 153.48925 | 453 ft | 67 kts | 155° |
| 2026-05-09 08:35 | -28.14274 | 153.49211 | 354 ft | 81 kts | 156° |
| 2026-05-09 08:36 | -28.14751 | 153.49503 | 259 ft | 78 kts | 156° |
| 2026-05-09 08:36 | -28.15224 | 153.49803 | 157 ft | 76 kts | 153° |
| 2026-05-09 08:36 | -28.15676 | 153.50087 | 55 ft | 72 kts | 153° |
| 2026-05-09 08:36 | -28.16056 | 153.50326 | 24 ft | 50 kts | 150° |
| 2026-05-09 08:37 | -28.16293 | 153.50479 | 22 ft | 25 kts | 150° |
| 2026-05-09 08:37 | -28.16344 | 153.50587 | 23 ft | 13 kts | 64° |
| 2026-05-09 08:37 | -28.16315 | 153.50647 | 24 ft | 7 kts | 67° |
| 2026-05-09 08:37 | -28.16301 | 153.50699 | 24 ft | 10 kts | 43° |
| 2026-05-09 08:38 | -28.16263 | 153.50788 | 24 ft | 15 kts | 70° |
| 2026-05-09 08:38 | -28.16220 | 153.50915 | 24 ft | 18 kts | 67° |
| 2026-05-09 08:38 | -28.16143 | 153.50914 | 24 ft | 18 kts | 312° |
| 2026-05-09 08:38 | -28.16046 | 153.50794 | 24 ft | 22 kts | 313° |
| 2026-05-09 08:39 | -28.15968 | 153.50738 | 24 ft | 7 kts | 322° |
| 2026-05-09 08:39 | -28.15969 | 153.50730 | 24 ft | 0 kts | 196° |